Time,TemperatureF,DewpointF,PressureIn,WindDirection,WindDirectionDegrees,WindSpeedMPH,WindSpeedGustMPH,Humidity,HourlyPrecipIn,Conditions,Clouds,dailyrainin,SoftwareType,DateUTC
2013-08-14 00:00:00,62.5,61.9,29.77,North,0,1.0,12.0,98,0.00,,,-99.99,WeatherLink 5.6,2013-08-14 04:00:00,
2013-08-14 00:30:00,62.2,61.6,29.78,North,0,1.0,11.0,98,0.00,,,-99.99,WeatherLink 5.6,2013-08-14 04:30:00,
2013-08-14 01:00:00,61.5,60.9,29.78,NW,315,1.0,14.0,98,0.00,,,-99.99,WeatherLink 5.6,2013-08-14 05:00:00,
2013-08-14 01:30:00,60.5,59.9,29.77,NW,315,1.0,12.0,98,0.00,,,-99.99,WeatherLink 5.6,2013-08-14 05:30:00,
2013-08-14 02:00:00,59.7,59.1,29.79,NE,45,0.0,10.0,98,0.00,,,-99.99,WeatherLink 5.6,2013-08-14 06:00:00,
2013-08-14 02:30:00,59.0,58.4,29.79,NNW,337,1.0,12.0,98,0.00,,,-99.99,WeatherLink 5.6,2013-08-14 06:30:00,
2013-08-14 03:00:00,58.5,57.9,29.79,NNW,337,1.0,7.0,98,0.00,,,-99.99,WeatherLink 5.6,2013-08-14 07:00:00,
2013-08-14 03:30:00,58.0,57.4,29.80,NW,315,0.0,8.0,98,0.00,,,-99.99,WeatherLink 5.6,2013-08-14 07:30:00,
2013-08-14 04:00:00,57.2,56.6,29.82,North,-999,0.0,0.0,98,0.00,,,-99.99,WeatherLink 5.6,2013-08-14 08:00:00,
2013-08-14 04:30:00,56.8,56.2,29.82,North,-999,0.0,0.0,98,0.00,,,-99.99,WeatherLink 5.6,2013-08-14 08:30:00,
2013-08-14 05:00:00,56.9,56.3,29.82,North,-999,0.0,0.0,98,0.00,,,-99.99,WeatherLink 5.6,2013-08-14 09:00:00,
2013-08-14 05:30:00,56.0,55.4,29.83,North,0,0.0,8.0,98,0.00,,,-99.99,WeatherLink 5.6,2013-08-14 09:30:00,
2013-08-14 06:00:00,55.4,54.8,29.83,North,0,0.0,5.0,98,0.00,,,-99.99,WeatherLink 5.6,2013-08-14 10:00:00,
2013-08-14 06:30:00,55.3,54.7,29.84,North,-999,0.0,0.0,98,0.00,,,-99.99,WeatherLink 5.6,2013-08-14 10:30:00,
2013-08-14 07:00:00,55.4,54.8,29.85,North,-999,0.0,0.0,98,0.00,,,-99.99,WeatherLink 5.6,2013-08-14 11:00:00,
2013-08-14 07:30:00,55.3,54.7,29.88,North,-999,0.0,0.0,98,0.00,,,-99.99,WeatherLink 5.6,2013-08-14 11:30:00,
2013-08-14 08:00:00,54.5,53.7,29.89,North,-999,0.0,0.0,97,0.00,,,-99.99,WeatherLink 5.6,2013-08-14 12:00:00,
2013-08-14 08:30:00,54.9,54.3,29.90,North,-999,0.0,0.0,98,0.00,,,-99.99,WeatherLink 5.6,2013-08-14 12:30:00,
2013-08-14 09:00:00,55.7,54.9,29.90,North,-999,0.0,0.0,97,0.00,,,-99.99,WeatherLink 5.6,2013-08-14 13:00:00,
2013-08-14 09:30:00,56.7,55.3,29.90,NNE,22,0.0,4.0,95,0.00,,,-99.99,WeatherLink 5.6,2013-08-14 13:30:00,
2013-08-14 10:00:00,57.9,53.7,29.90,NNE,22,0.0,3.0,86,0.00,,,-99.99,WeatherLink 5.6,2013-08-14 14:00:00,
2013-08-14 10:30:00,59.0,54.2,29.91,North,0,1.0,9.0,84,0.00,,,-99.99,WeatherLink 5.6,2013-08-14 14:30:00,
2013-08-14 11:00:00,59.0,53.8,29.91,North,0,2.0,9.0,83,0.00,,,-99.99,WeatherLink 5.6,2013-08-14 15:00:00,
2013-08-14 11:30:00,59.8,54.6,29.91,NNW,337,2.0,12.0,83,0.00,,,-99.99,WeatherLink 5.6,2013-08-14 15:30:00,
2013-08-14 12:00:00,59.8,55.0,29.91,NNW,337,2.0,10.0,84,0.00,,,-99.99,WeatherLink 5.6,2013-08-14 16:00:00,
2013-08-14 12:30:00,60.5,52.9,29.91,NW,315,2.0,10.0,76,0.00,,,-99.99,WeatherLink 5.6,2013-08-14 16:30:00,
2013-08-14 13:00:00,62.1,54.8,29.91,NNE,22,1.0,8.0,77,0.00,,,-99.99,WeatherLink 5.6,2013-08-14 17:00:00,
2013-08-14 13:30:00,62.1,53.3,29.91,NNW,337,2.0,13.0,73,0.00,,,-99.99,WeatherLink 5.6,2013-08-14 17:30:00,
2013-08-14 14:00:00,63.1,55.8,29.90,WNW,292,1.0,11.0,77,0.00,,,-99.99,WeatherLink 5.6,2013-08-14 18:00:00,
2013-08-14 14:30:00,63.3,54.5,29.91,NW,315,1.0,10.0,73,0.00,,,-99.99,WeatherLink 5.6,2013-08-14 18:30:00,
2013-08-14 15:00:00,64.1,54.5,29.90,North,0,1.0,10.0,71,0.00,,,-99.99,WeatherLink 5.6,2013-08-14 19:00:00,
2013-08-14 15:30:00,64.6,55.7,29.90,NW,315,1.0,11.0,73,0.00,,,-99.99,WeatherLink 5.6,2013-08-14 19:30:00,
2013-08-14 16:00:00,64.9,55.3,29.90,NE,45,1.0,12.0,71,0.00,,,-99.99,WeatherLink 5.6,2013-08-14 20:00:00,
2013-08-14 16:30:00,64.8,55.6,29.90,NNW,337,1.0,11.0,72,0.00,,,-99.99,WeatherLink 5.6,2013-08-14 20:30:00,
2013-08-14 17:00:00,64.7,55.1,29.90,NW,315,1.0,9.0,71,0.00,,,-99.99,WeatherLink 5.6,2013-08-14 21:00:00,
2013-08-14 17:30:00,64.6,56.1,29.90,WNW,292,1.0,10.0,74,0.00,,,-99.99,WeatherLink 5.6,2013-08-14 21:30:00,
2013-08-14 18:00:00,63.9,55.1,29.92,NNW,337,0.0,8.0,73,0.00,,,-99.99,WeatherLink 5.6,2013-08-14 22:00:00,
2013-08-14 18:30:00,62.5,54.5,29.92,NNE,22,0.0,7.0,75,0.00,,,-99.99,WeatherLink 5.6,2013-08-14 22:30:00,
2013-08-14 19:00:00,61.9,53.5,29.92,NNE,22,0.0,7.0,74,0.00,,,-99.99,WeatherLink 5.6,2013-08-14 23:00:00,
2013-08-14 19:30:00,61.2,53.9,29.93,North,0,0.0,2.0,77,0.00,,,-99.99,WeatherLink 5.6,2013-08-14 23:30:00,
2013-08-14 20:00:00,58.9,53.1,29.94,WNW,292,0.0,1.0,81,0.00,,,-99.99,WeatherLink 5.6,2013-08-15 00:00:00,
2013-08-14 20:30:00,56.6,52.5,29.95,North,-999,0.0,0.0,86,0.00,,,-99.99,WeatherLink 5.6,2013-08-15 00:30:00,
2013-08-14 21:00:00,55.5,52.0,29.96,North,-999,0.0,0.0,88,0.00,,,-99.99,WeatherLink 5.6,2013-08-15 01:00:00,
2013-08-14 21:30:00,55.8,51.4,29.97,North,-999,0.0,0.0,85,0.00,,,-99.99,WeatherLink 5.6,2013-08-15 01:30:00,
2013-08-14 22:00:00,55.0,51.5,29.98,North,-999,0.0,0.0,88,0.00,,,-99.99,WeatherLink 5.6,2013-08-15 02:00:00,
2013-08-14 22:30:00,54.4,51.5,29.98,North,-999,0.0,0.0,90,0.00,,,-99.99,WeatherLink 5.6,2013-08-15 02:30:00,
2013-08-14 23:00:00,54.5,51.3,29.98,North,-999,0.0,0.0,89,0.00,,,-99.99,WeatherLink 5.6,2013-08-15 03:00:00,
2013-08-14 23:30:00,54.9,50.8,29.98,North,-999,0.0,0.0,86,0.00,,,-99.99,WeatherLink 5.6,2013-08-15 03:30:00,